sensor_id;sensor_type;location;lat;lon;timestamp;pressure;altitude;pressure_sealevel;temperature;humidity
48874;BME280;66155;46.204;5.220;2023-02-12T00:00:30;100519.78;;;3.22;54.88
48874;BME280;66155;46.204;5.220;2023-02-12T00:05:31;100521.09;;;3.26;54.79
48874;BME280;66155;46.204;5.220;2023-02-12T00:10:32;100507.84;;;3.21;55.05
48874;BME280;66155;46.204;5.220;2023-02-12T00:15:32;100513.31;;;3.18;54.79
48874;BME280;66155;46.204;5.220;2023-02-12T00:20:35;100495.19;;;3.01;55.73
48874;BME280;66155;46.204;5.220;2023-02-12T00:25:39;100503.44;;;3.05;55.42
48874;BME280;66155;46.204;5.220;2023-02-12T00:30:40;100500.34;;;3.01;55.30
48874;BME280;66155;46.204;5.220;2023-02-12T00:35:40;100487.31;;;3.03;55.02
48874;BME280;66155;46.204;5.220;2023-02-12T00:40:41;100483.81;;;3.04;55.27
48874;BME280;66155;46.204;5.220;2023-02-12T00:45:43;100480.25;;;3.05;54.99
48874;BME280;66155;46.204;5.220;2023-02-12T00:50:45;100472.81;;;3.02;55.11
48874;BME280;66155;46.204;5.220;2023-02-12T00:55:46;100478.44;;;2.97;55.98
48874;BME280;66155;46.204;5.220;2023-02-12T01:00:47;100484.41;;;2.98;55.44
48874;BME280;66155;46.204;5.220;2023-02-12T01:05:47;100485.19;;;2.98;56.44
48874;BME280;66155;46.204;5.220;2023-02-12T01:10:59;100485.53;;;2.95;56.30
48874;BME280;66155;46.204;5.220;2023-02-12T01:16:05;100494.50;;;2.91;55.29
48874;BME280;66155;46.204;5.220;2023-02-12T01:21:20;100501.56;;;2.89;55.74
48874;BME280;66155;46.204;5.220;2023-02-12T01:26:20;100498.63;;;2.84;55.95
48874;BME280;66155;46.204;5.220;2023-02-12T01:31:24;100493.13;;;2.79;55.69
48874;BME280;66155;46.204;5.220;2023-02-12T01:36:29;100490.22;;;2.74;55.70
48874;BME280;66155;46.204;5.220;2023-02-12T01:41:35;100485.72;;;2.76;56.49
48874;BME280;66155;46.204;5.220;2023-02-12T01:46:37;100486.97;;;2.72;56.65
48874;BME280;66155;46.204;5.220;2023-02-12T01:51:38;100504.47;;;2.68;56.25
48874;BME280;66155;46.204;5.220;2023-02-12T01:56:41;100494.34;;;2.66;56.30
48874;BME280;66155;46.204;5.220;2023-02-12T02:01:42;100501.91;;;2.68;56.28
48874;BME280;66155;46.204;5.220;2023-02-12T02:06:55;100483.84;;;2.60;57.70
48874;BME280;66155;46.204;5.220;2023-02-12T02:11:56;100492.66;;;2.57;57.00
48874;BME280;66155;46.204;5.220;2023-02-12T02:22:23;100488.13;;;2.51;57.32
48874;BME280;66155;46.204;5.220;2023-02-12T02:27:42;100484.06;;;2.48;57.53
48874;BME280;66155;46.204;5.220;2023-02-12T02:38:31;100470.84;;;2.43;56.89
48874;BME280;66155;46.204;5.220;2023-02-12T02:43:44;100466.94;;;2.39;57.75
48874;BME280;66155;46.204;5.220;2023-02-12T02:48:52;100460.72;;;2.42;57.23
48874;BME280;66155;46.204;5.220;2023-02-12T02:54:06;100445.44;;;2.40;58.08
48874;BME280;66155;46.204;5.220;2023-02-12T02:59:16;100446.22;;;2.41;57.68
48874;BME280;66155;46.204;5.220;2023-02-12T03:04:33;100439.63;;;2.38;58.15
48874;BME280;66155;46.204;5.220;2023-02-12T03:10:13;100447.94;;;2.32;58.81
48874;BME280;66155;46.204;5.220;2023-02-12T03:15:26;100433.00;;;2.36;57.64
48874;BME280;66155;46.204;5.220;2023-02-12T03:20:41;100440.06;;;2.34;58.41
48874;BME280;66155;46.204;5.220;2023-02-12T03:25:49;100437.88;;;2.21;58.88
48874;BME280;66155;46.204;5.220;2023-02-12T03:31:21;100438.16;;;2.18;58.80
48874;BME280;66155;46.204;5.220;2023-02-12T03:36:37;100435.44;;;2.19;58.55
48874;BME280;66155;46.204;5.220;2023-02-12T03:41:48;100431.25;;;2.18;58.44
48874;BME280;66155;46.204;5.220;2023-02-12T03:46:58;100429.66;;;2.17;58.21
48874;BME280;66155;46.204;5.220;2023-02-12T03:52:02;100428.69;;;2.18;58.01
48874;BME280;66155;46.204;5.220;2023-02-12T03:57:10;100436.72;;;2.15;57.99
48874;BME280;66155;46.204;5.220;2023-02-12T04:02:14;100437.16;;;2.11;57.77
48874;BME280;66155;46.204;5.220;2023-02-12T04:07:15;100443.69;;;2.05;58.84
48874;BME280;66155;46.204;5.220;2023-02-12T04:12:39;100449.84;;;1.76;60.84
48874;BME280;66155;46.204;5.220;2023-02-12T04:17:50;100440.13;;;1.70;61.46
48874;BME280;66155;46.204;5.220;2023-02-12T04:33:10;100464.72;;;1.17;63.71
48874;BME280;66155;46.204;5.220;2023-02-12T04:38:17;100476.03;;;1.34;61.62
48874;BME280;66155;46.204;5.220;2023-02-12T04:43:28;100475.44;;;1.40;62.32
48874;BME280;66155;46.204;5.220;2023-02-12T04:48:29;100488.72;;;1.36;62.02
48874;BME280;66155;46.204;5.220;2023-02-12T04:53:29;100484.91;;;1.40;61.78
48874;BME280;66155;46.204;5.220;2023-02-12T04:58:30;100482.59;;;1.46;61.32
48874;BME280;66155;46.204;5.220;2023-02-12T05:03:30;100468.13;;;1.45;61.49
48874;BME280;66155;46.204;5.220;2023-02-12T05:08:31;100470.28;;;1.50;60.91
48874;BME280;66155;46.204;5.220;2023-02-12T05:13:32;100469.47;;;1.49;61.13
48874;BME280;66155;46.204;5.220;2023-02-12T05:18:34;100464.19;;;1.23;62.63
48874;BME280;66155;46.204;5.220;2023-02-12T05:23:36;100468.75;;;1.29;61.28
48874;BME280;66155;46.204;5.220;2023-02-12T05:28:37;100473.69;;;1.13;62.96
48874;BME280;66155;46.204;5.220;2023-02-12T05:33:38;100463.00;;;1.18;61.67
48874;BME280;66155;46.204;5.220;2023-02-12T05:38:41;100473.78;;;1.21;61.08
48874;BME280;66155;46.204;5.220;2023-02-12T05:43:42;100454.31;;;1.19;63.16
48874;BME280;66155;46.204;5.220;2023-02-12T05:48:43;100450.75;;;1.02;64.24
48874;BME280;66155;46.204;5.220;2023-02-12T05:53:44;100448.97;;;1.12;62.28
48874;BME280;66155;46.204;5.220;2023-02-12T05:58:47;100453.66;;;1.17;61.97
48874;BME280;66155;46.204;5.220;2023-02-12T06:03:50;100463.06;;;1.26;61.55
48874;BME280;66155;46.204;5.220;2023-02-12T06:08:51;100462.41;;;1.24;61.62
48874;BME280;66155;46.204;5.220;2023-02-12T06:13:52;100454.84;;;1.22;61.17
48874;BME280;66155;46.204;5.220;2023-02-12T06:18:53;100458.25;;;1.23;60.83
48874;BME280;66155;46.204;5.220;2023-02-12T06:23:54;100458.13;;;1.14;60.72
48874;BME280;66155;46.204;5.220;2023-02-12T06:28:55;100454.31;;;1.19;61.07
48874;BME280;66155;46.204;5.220;2023-02-12T06:33:59;100444.06;;;1.19;60.44
48874;BME280;66155;46.204;5.220;2023-02-12T06:39:01;100450.28;;;1.16;61.04
48874;BME280;66155;46.204;5.220;2023-02-12T06:44:02;100449.50;;;1.16;60.33
48874;BME280;66155;46.204;5.220;2023-02-12T06:49:03;100456.75;;;1.20;60.27
48874;BME280;66155;46.204;5.220;2023-02-12T06:54:03;100464.84;;;1.25;60.04
48874;BME280;66155;46.204;5.220;2023-02-12T06:59:05;100474.56;;;1.31;60.16
48874;BME280;66155;46.204;5.220;2023-02-12T07:04:06;100475.09;;;1.35;60.26
48874;BME280;66155;46.204;5.220;2023-02-12T07:09:07;100480.88;;;1.37;60.13
48874;BME280;66155;46.204;5.220;2023-02-12T07:14:15;100486.56;;;1.41;60.70
48874;BME280;66155;46.204;5.220;2023-02-12T07:19:16;100480.56;;;1.50;60.19
48874;BME280;66155;46.204;5.220;2023-02-12T07:24:17;100481.31;;;1.60;60.15
48874;BME280;66155;46.204;5.220;2023-02-12T07:29:17;100480.88;;;1.65;59.87
48874;BME280;66155;46.204;5.220;2023-02-12T07:34:18;100491.53;;;1.70;60.05
48874;BME280;66155;46.204;5.220;2023-02-12T07:39:18;100477.00;;;1.79;60.06
48874;BME280;66155;46.204;5.220;2023-02-12T07:44:19;100479.22;;;1.92;59.60
48874;BME280;66155;46.204;5.220;2023-02-12T07:49:21;100476.09;;;1.98;59.64
48874;BME280;66155;46.204;5.220;2023-02-12T07:54:22;100477.50;;;2.10;59.79
48874;BME280;66155;46.204;5.220;2023-02-12T07:59:22;100487.63;;;2.30;59.93
48874;BME280;66155;46.204;5.220;2023-02-12T08:04:24;100493.84;;;2.27;60.17
48874;BME280;66155;46.204;5.220;2023-02-12T08:09:26;100501.44;;;2.28;59.91
48874;BME280;66155;46.204;5.220;2023-02-12T08:14:27;100492.97;;;2.18;60.22
48874;BME280;66155;46.204;5.220;2023-02-12T08:19:27;100504.25;;;1.89;61.11
48874;BME280;66155;46.204;5.220;2023-02-12T08:24:28;100509.03;;;1.84;61.70
48874;BME280;66155;46.204;5.220;2023-02-12T08:29:29;100506.59;;;1.83;62.67
48874;BME280;66155;46.204;5.220;2023-02-12T08:34:32;100515.31;;;2.00;62.99
48874;BME280;66155;46.204;5.220;2023-02-12T08:39:32;100519.38;;;2.20;63.06
48874;BME280;66155;46.204;5.220;2023-02-12T08:44:33;100513.91;;;2.41;63.56
48874;BME280;66155;46.204;5.220;2023-02-12T08:49:33;100512.22;;;2.32;64.01
48874;BME280;66155;46.204;5.220;2023-02-12T08:54:34;100513.25;;;2.39;65.07
48874;BME280;66155;46.204;5.220;2023-02-12T08:59:34;100519.13;;;2.50;64.86
48874;BME280;66155;46.204;5.220;2023-02-12T09:04:35;100506.88;;;2.43;65.36
48874;BME280;66155;46.204;5.220;2023-02-12T09:09:35;100518.88;;;2.61;65.39
48874;BME280;66155;46.204;5.220;2023-02-12T09:14:35;100524.34;;;2.58;65.51
48874;BME280;66155;46.204;5.220;2023-02-12T09:19:36;100520.81;;;2.59;64.93
48874;BME280;66155;46.204;5.220;2023-02-12T09:24:36;100529.16;;;2.79;64.72
48874;BME280;66155;46.204;5.220;2023-02-12T09:29:37;100529.19;;;3.05;64.38
48874;BME280;66155;46.204;5.220;2023-02-12T09:34:37;100526.75;;;3.30;63.03
48874;BME280;66155;46.204;5.220;2023-02-12T09:39:38;100522.94;;;3.42;63.65
48874;BME280;66155;46.204;5.220;2023-02-12T09:45:01;100538.22;;;3.70;62.77
48874;BME280;66155;46.204;5.220;2023-02-12T09:55:30;100526.19;;;3.95;62.30
48874;BME280;66155;46.204;5.220;2023-02-12T10:00:32;100521.69;;;3.97;62.42
48874;BME280;66155;46.204;5.220;2023-02-12T10:05:44;100516.88;;;4.18;61.84
48874;BME280;66155;46.204;5.220;2023-02-12T10:21:54;100509.63;;;4.22;62.36
48874;BME280;66155;46.204;5.220;2023-02-12T10:27:00;100505.94;;;4.41;61.69
48874;BME280;66155;46.204;5.220;2023-02-12T10:32:22;100504.31;;;4.40;61.98
48874;BME280;66155;46.204;5.220;2023-02-12T10:43:03;100506.25;;;4.38;61.87
48874;BME280;66155;46.204;5.220;2023-02-12T10:53:21;100491.25;;;4.17;62.63
48874;BME280;66155;46.204;5.220;2023-02-12T10:58:22;100489.00;;;4.30;61.87
48874;BME280;66155;46.204;5.220;2023-02-12T11:03:31;100487.22;;;4.31;62.05
48874;BME280;66155;46.204;5.220;2023-02-12T11:08:37;100487.22;;;4.14;62.10
48874;BME280;66155;46.204;5.220;2023-02-12T11:13:55;100479.00;;;4.11;62.27
48874;BME280;66155;46.204;5.220;2023-02-12T11:19:02;100483.19;;;4.20;62.35
48874;BME280;66155;46.204;5.220;2023-02-12T11:24:30;100488.97;;;4.14;62.72
48874;BME280;66155;46.204;5.220;2023-02-12T11:29:30;100478.84;;;4.53;60.96
48874;BME280;66155;46.204;5.220;2023-02-12T11:34:33;100474.19;;;5.21;59.78
48874;BME280;66155;46.204;5.220;2023-02-12T11:39:37;100477.28;;;5.56;58.99
48874;BME280;66155;46.204;5.220;2023-02-12T11:44:41;100470.50;;;5.47;59.72
48874;BME280;66155;46.204;5.220;2023-02-12T11:49:48;100458.75;;;5.36;59.77
48874;BME280;66155;46.204;5.220;2023-02-12T11:54:53;100448.53;;;5.11;60.01
48874;BME280;66155;46.204;5.220;2023-02-12T11:59:57;100439.19;;;5.42;59.56
48874;BME280;66155;46.204;5.220;2023-02-12T12:05:07;100446.19;;;5.33;59.29
48874;BME280;66155;46.204;5.220;2023-02-12T12:10:16;100435.97;;;5.40;59.30
48874;BME280;66155;46.204;5.220;2023-02-12T12:15:27;100431.69;;;5.55;59.10
48874;BME280;66155;46.204;5.220;2023-02-12T12:21:07;100425.13;;;5.44;59.44
48874;BME280;66155;46.204;5.220;2023-02-12T12:26:17;100420.28;;;5.72;58.62
48874;BME280;66155;46.204;5.220;2023-02-12T12:31:32;100422.50;;;6.07;58.17
48874;BME280;66155;46.204;5.220;2023-02-12T12:58:21;100405.97;;;6.46;56.99
48874;BME280;66155;46.204;5.220;2023-02-12T13:03:31;100411.09;;;6.16;58.11
48874;BME280;66155;46.204;5.220;2023-02-12T13:13:45;100400.09;;;6.52;56.91
48874;BME280;66155;46.204;5.220;2023-02-12T13:19:01;100396.00;;;9.43;50.46
48874;BME280;66155;46.204;5.220;2023-02-12T13:25:14;100374.47;;;14.87;39.01
48874;BME280;66155;46.204;5.220;2023-02-12T13:29:48;100358.03;;;16.83;35.33
48874;BME280;66155;46.204;5.220;2023-02-12T13:34:52;100347.03;;;17.78;33.63
48874;BME280;66155;46.204;5.220;2023-02-12T13:39:56;100344.56;;;17.98;32.87
48874;BME280;66155;46.204;5.220;2023-02-12T13:50:44;100334.19;;;19.59;31.23
48874;BME280;66155;46.204;5.220;2023-02-12T14:01:36;100335.00;;;19.29;31.49
48874;BME280;66155;46.204;5.220;2023-02-12T14:06:37;100330.09;;;20.28;30.19
48874;BME280;66155;46.204;5.220;2023-02-12T14:11:51;100331.56;;;19.80;29.51
48874;BME280;66155;46.204;5.220;2023-02-12T14:16:52;100331.22;;;20.12;29.48
48874;BME280;66155;46.204;5.220;2023-02-12T14:21:53;100324.41;;;19.75;29.99
48874;BME280;66155;46.204;5.220;2023-02-12T14:26:53;100326.03;;;19.40;29.93
48874;BME280;66155;46.204;5.220;2023-02-12T14:31:54;100324.94;;;19.62;29.62
48874;BME280;66155;46.204;5.220;2023-02-12T14:37:15;100321.50;;;19.77;29.08
48874;BME280;66155;46.204;5.220;2023-02-12T14:52:31;100314.88;;;18.87;30.06
48874;BME280;66155;46.204;5.220;2023-02-12T14:57:39;100317.13;;;17.99;31.43
48874;BME280;66155;46.204;5.220;2023-02-12T15:02:40;100326.81;;;16.91;33.47
48874;BME280;66155;46.204;5.220;2023-02-12T15:07:45;100330.53;;;14.30;37.18
48874;BME280;66155;46.204;5.220;2023-02-12T15:18:11;100336.94;;;13.63;38.20
48874;BME280;66155;46.204;5.220;2023-02-12T15:28:38;100329.25;;;11.46;42.27
48874;BME280;66155;46.204;5.220;2023-02-12T15:33:44;100324.81;;;11.72;41.67
48874;BME280;66155;46.204;5.220;2023-02-12T15:38:56;100335.97;;;10.12;44.81
48874;BME280;66155;46.204;5.220;2023-02-12T15:44:16;100340.84;;;8.51;48.24
48874;BME280;66155;46.204;5.220;2023-02-12T15:49:18;100345.06;;;6.95;52.50
48874;BME280;66155;46.204;5.220;2023-02-12T15:54:21;100349.69;;;6.10;54.04
48874;BME280;66155;46.204;5.220;2023-02-12T15:59:26;100342.16;;;5.31;57.69
48874;BME280;66155;46.204;5.220;2023-02-12T16:04:35;100339.16;;;4.88;58.19
48874;BME280;66155;46.204;5.220;2023-02-12T16:09:37;100341.72;;;4.40;59.82
48874;BME280;66155;46.204;5.220;2023-02-12T16:14:43;100342.13;;;4.12;61.51
48874;BME280;66155;46.204;5.220;2023-02-12T16:24:57;100342.59;;;3.83;62.10
48874;BME280;66155;46.204;5.220;2023-02-12T16:30:04;100342.13;;;3.63;63.55
48874;BME280;66155;46.204;5.220;2023-02-12T16:50:29;100350.13;;;3.35;65.04
48874;BME280;66155;46.204;5.220;2023-02-12T16:55:30;100349.81;;;3.38;63.89
48874;BME280;66155;46.204;5.220;2023-02-12T17:00:31;100357.31;;;3.15;65.03
48874;BME280;66155;46.204;5.220;2023-02-12T17:05:31;100363.88;;;3.01;66.19
48874;BME280;66155;46.204;5.220;2023-02-12T17:10:31;100360.63;;;2.91;66.60
48874;BME280;66155;46.204;5.220;2023-02-12T17:15:46;100361.59;;;2.90;68.08
48874;BME280;66155;46.204;5.220;2023-02-12T17:20:54;100363.66;;;2.87;67.63
48874;BME280;66155;46.204;5.220;2023-02-12T17:25:55;100373.41;;;2.75;68.97
48874;BME280;66155;46.204;5.220;2023-02-12T17:30:56;100366.47;;;2.67;66.75
48874;BME280;66155;46.204;5.220;2023-02-12T17:35:58;100381.06;;;2.58;67.04
48874;BME280;66155;46.204;5.220;2023-02-12T17:40:59;100377.63;;;2.50;68.45
48874;BME280;66155;46.204;5.220;2023-02-12T17:45:59;100368.91;;;2.42;67.82
48874;BME280;66155;46.204;5.220;2023-02-12T17:51:00;100373.53;;;2.39;68.35
48874;BME280;66155;46.204;5.220;2023-02-12T17:56:00;100368.84;;;2.34;69.85
48874;BME280;66155;46.204;5.220;2023-02-12T18:01:05;100370.88;;;2.22;69.57
48874;BME280;66155;46.204;5.220;2023-02-12T18:06:07;100370.81;;;2.40;67.59
48874;BME280;66155;46.204;5.220;2023-02-12T18:11:10;100376.41;;;2.62;66.58
48874;BME280;66155;46.204;5.220;2023-02-12T18:16:11;100373.28;;;2.76;66.08
48874;BME280;66155;46.204;5.220;2023-02-12T18:21:13;100382.63;;;2.85;66.76
48874;BME280;66155;46.204;5.220;2023-02-12T18:26:16;100378.72;;;2.73;67.70
48874;BME280;66155;46.204;5.220;2023-02-12T18:31:17;100380.91;;;2.60;67.92
48874;BME280;66155;46.204;5.220;2023-02-12T18:36:20;100379.53;;;2.74;66.82
48874;BME280;66155;46.204;5.220;2023-02-12T18:41:23;100372.84;;;2.55;68.13
48874;BME280;66155;46.204;5.220;2023-02-12T18:46:26;100383.69;;;2.40;67.76
48874;BME280;66155;46.204;5.220;2023-02-12T18:51:28;100383.84;;;2.39;68.13
48874;BME280;66155;46.204;5.220;2023-02-12T18:56:32;100373.75;;;2.45;67.13
48874;BME280;66155;46.204;5.220;2023-02-12T19:01:34;100379.63;;;2.38;67.63
48874;BME280;66155;46.204;5.220;2023-02-12T19:06:49;100375.41;;;2.55;67.53
48874;BME280;66155;46.204;5.220;2023-02-12T19:11:52;100376.69;;;2.51;66.63
48874;BME280;66155;46.204;5.220;2023-02-12T19:16:53;100376.91;;;2.65;66.35
48874;BME280;66155;46.204;5.220;2023-02-12T19:21:53;100376.41;;;2.62;67.46
48874;BME280;66155;46.204;5.220;2023-02-12T19:26:54;100378.06;;;2.45;67.42
48874;BME280;66155;46.204;5.220;2023-02-12T19:31:54;100375.19;;;2.48;67.19
48874;BME280;66155;46.204;5.220;2023-02-12T19:36:56;100377.69;;;2.58;67.16
48874;BME280;66155;46.204;5.220;2023-02-12T19:41:57;100373.13;;;2.52;66.86
48874;BME280;66155;46.204;5.220;2023-02-12T19:46:57;100382.50;;;2.61;66.67
48874;BME280;66155;46.204;5.220;2023-02-12T19:51:58;100373.19;;;2.60;66.40
48874;BME280;66155;46.204;5.220;2023-02-12T19:56:59;100377.75;;;2.74;66.17
48874;BME280;66155;46.204;5.220;2023-02-12T20:01:59;100381.28;;;2.73;66.24
48874;BME280;66155;46.204;5.220;2023-02-12T20:07:02;100386.78;;;2.78;65.86
48874;BME280;66155;46.204;5.220;2023-02-12T20:12:02;100382.00;;;2.83;65.84
48874;BME280;66155;46.204;5.220;2023-02-12T20:17:03;100384.00;;;2.72;67.58
48874;BME280;66155;46.204;5.220;2023-02-12T20:22:03;100383.34;;;2.61;66.77
48874;BME280;66155;46.204;5.220;2023-02-12T20:27:04;100393.50;;;2.45;67.33
48874;BME280;66155;46.204;5.220;2023-02-12T20:32:04;100387.91;;;2.50;66.83
48874;BME280;66155;46.204;5.220;2023-02-12T20:37:05;100395.19;;;2.54;66.71
48874;BME280;66155;46.204;5.220;2023-02-12T20:42:06;100402.50;;;2.41;66.77
48874;BME280;66155;46.204;5.220;2023-02-12T20:47:06;100403.97;;;2.43;67.53
48874;BME280;66155;46.204;5.220;2023-02-12T20:52:07;100401.56;;;2.42;67.34
48874;BME280;66155;46.204;5.220;2023-02-12T20:57:07;100403.34;;;2.50;66.96
48874;BME280;66155;46.204;5.220;2023-02-12T21:02:09;100406.06;;;2.48;66.42
48874;BME280;66155;46.204;5.220;2023-02-12T21:07:10;100407.56;;;2.51;66.65
48874;BME280;66155;46.204;5.220;2023-02-12T21:12:11;100410.34;;;2.39;67.05
48874;BME280;66155;46.204;5.220;2023-02-12T21:17:11;100399.63;;;2.44;66.18
48874;BME280;66155;46.204;5.220;2023-02-12T21:22:12;100408.94;;;2.45;66.25
48874;BME280;66155;46.204;5.220;2023-02-12T21:27:12;100407.56;;;2.33;66.71
48874;BME280;66155;46.204;5.220;2023-02-12T21:32:13;100397.19;;;2.42;66.38
48874;BME280;66155;46.204;5.220;2023-02-12T21:37:13;100398.16;;;2.41;66.21
48874;BME280;66155;46.204;5.220;2023-02-12T21:42:14;100402.56;;;2.49;66.40
48874;BME280;66155;46.204;5.220;2023-02-12T21:47:14;100390.78;;;2.46;66.35
48874;BME280;66155;46.204;5.220;2023-02-12T21:52:15;100393.38;;;2.46;66.01
48874;BME280;66155;46.204;5.220;2023-02-12T21:57:15;100398.63;;;2.37;66.74
48874;BME280;66155;46.204;5.220;2023-02-12T22:02:19;100393.16;;;2.40;66.83
48874;BME280;66155;46.204;5.220;2023-02-12T22:07:19;100400.34;;;2.36;66.78
48874;BME280;66155;46.204;5.220;2023-02-12T22:12:20;100403.00;;;2.44;66.11
48874;BME280;66155;46.204;5.220;2023-02-12T22:17:20;100399.78;;;2.42;66.65
48874;BME280;66155;46.204;5.220;2023-02-12T22:22:21;100397.84;;;2.44;66.27
48874;BME280;66155;46.204;5.220;2023-02-12T22:27:23;100405.22;;;2.39;66.96
48874;BME280;66155;46.204;5.220;2023-02-12T22:32:24;100398.28;;;2.40;66.86
48874;BME280;66155;46.204;5.220;2023-02-12T22:37:26;100404.25;;;2.40;66.46
48874;BME280;66155;46.204;5.220;2023-02-12T22:42:26;100407.78;;;2.39;66.67
48874;BME280;66155;46.204;5.220;2023-02-12T22:47:27;100408.91;;;2.37;66.81
48874;BME280;66155;46.204;5.220;2023-02-12T22:52:31;100420.28;;;2.34;66.83
48874;BME280;66155;46.204;5.220;2023-02-12T22:57:32;100419.91;;;2.29;66.67
48874;BME280;66155;46.204;5.220;2023-02-12T23:02:32;100415.63;;;2.12;68.01
48874;BME280;66155;46.204;5.220;2023-02-12T23:07:33;100421.44;;;2.14;66.87
48874;BME280;66155;46.204;5.220;2023-02-12T23:12:33;100423.03;;;2.15;66.39
48874;BME280;66155;46.204;5.220;2023-02-12T23:17:34;100437.16;;;2.11;66.72
48874;BME280;66155;46.204;5.220;2023-02-12T23:22:34;100443.41;;;2.08;66.14
48874;BME280;66155;46.204;5.220;2023-02-12T23:27:35;100445.97;;;2.08;65.99
48874;BME280;66155;46.204;5.220;2023-02-12T23:32:35;100446.13;;;2.06;65.98
48874;BME280;66155;46.204;5.220;2023-02-12T23:37:36;100444.44;;;1.97;66.79
48874;BME280;66155;46.204;5.220;2023-02-12T23:42:36;100443.38;;;1.90;66.71
48874;BME280;66155;46.204;5.220;2023-02-12T23:47:37;100446.25;;;1.87;66.71
48874;BME280;66155;46.204;5.220;2023-02-12T23:52:37;100444.50;;;1.87;66.60
48874;BME280;66155;46.204;5.220;2023-02-12T23:57:38;100448.75;;;1.79;66.96
